createdAt,value
2022-11-21T00:00:09.544Z,6.40
2022-11-21T00:01:22.031Z,4.38
2022-11-21T00:02:24.393Z,4.07
2022-11-21T00:03:27.012Z,6.05
2022-11-21T00:04:29.606Z,6.18
2022-11-21T00:05:32.671Z,4.25
2022-11-21T00:06:34.999Z,7.05
2022-11-21T00:07:37.450Z,5.30
2022-11-21T00:08:39.808Z,5.10
2022-11-21T00:09:42.126Z,4.13
2022-11-21T00:10:44.501Z,5.45
2022-11-21T00:11:46.786Z,3.53
2022-11-21T00:12:57.050Z,5.30
2022-11-21T00:13:59.315Z,2.75
2022-11-21T00:15:01.695Z,4.25
2022-11-21T00:16:05.805Z,4.28
2022-11-21T00:17:08.121Z,4.55
2022-11-21T00:18:14.008Z,3.03
2022-11-21T00:19:16.666Z,3.45
2022-11-21T00:20:20.825Z,4.68
2022-11-21T00:21:23.083Z,2.47
2022-11-21T00:22:25.382Z,2.05
2022-11-21T00:23:29.080Z,3.88
2022-11-21T00:24:31.342Z,3.33
2022-11-21T00:25:33.709Z,2.33
2022-11-21T00:26:37.507Z,3.10
2022-11-21T00:27:39.943Z,6.15
2022-11-21T00:28:42.596Z,4.35
2022-11-21T00:29:44.932Z,2.70
2022-11-21T00:30:47.237Z,3.30
2022-11-21T00:31:49.569Z,2.15
2022-11-21T00:32:51.955Z,3.17
2022-11-21T00:33:54.196Z,2.28
2022-11-21T00:34:56.670Z,3.13
2022-11-21T00:35:58.995Z,5.63
2022-11-21T00:37:01.688Z,3.15
2022-11-21T00:38:04.554Z,3.15
2022-11-21T00:39:06.836Z,3.38
2022-11-21T00:40:10.111Z,4.43
2022-11-21T00:41:12.548Z,2.47
2022-11-21T00:42:15.509Z,2.22
2022-11-21T00:43:18.045Z,2.00
2022-11-21T00:44:20.357Z,3.58
2022-11-21T00:45:24.528Z,2.00
2022-11-21T00:46:27.258Z,2.28
2022-11-21T00:47:29.693Z,3.20
2022-11-21T00:48:32.440Z,1.60
2022-11-21T00:49:35.417Z,2.88
2022-11-21T00:50:37.966Z,1.85
2022-11-21T00:51:40.484Z,3.50
2022-11-21T00:52:43.197Z,2.67
2022-11-21T00:53:45.612Z,3.33
2022-11-21T00:54:48.154Z,3.42
2022-11-21T00:55:50.652Z,4.68
2022-11-21T00:56:52.940Z,2.92
2022-11-21T00:57:55.453Z,3.05
2022-11-21T00:58:57.801Z,3.13
2022-11-21T01:00:00.574Z,6.85
2022-11-21T01:01:15.103Z,2.90
2022-11-21T01:02:17.741Z,4.30
2022-11-21T01:03:20.512Z,2.83
2022-11-21T01:04:23.367Z,4.18
2022-11-21T01:05:25.900Z,2.72
2022-11-21T01:06:31.594Z,2.53
2022-11-21T01:07:34.742Z,2.35
2022-11-21T01:08:39.692Z,3.65
2022-11-21T01:09:42.615Z,4.40
2022-11-21T01:10:48.167Z,1.98
2022-11-21T01:11:52.154Z,3.55
2022-11-21T01:12:54.825Z,4.20
2022-11-21T01:13:58.042Z,2.33
2022-11-21T01:15:00.639Z,3.47
2022-11-21T01:16:05.172Z,1.25
2022-11-21T01:17:07.680Z,2.42
2022-11-21T01:18:10.191Z,1.17
2022-11-21T01:19:12.614Z,2.58
2022-11-21T01:20:15.069Z,4.07
2022-11-21T01:21:29.233Z,3.90
2022-11-21T01:22:33.307Z,1.75
2022-11-21T01:23:35.857Z,3.10
2022-11-21T01:24:38.690Z,1.73
2022-11-21T01:25:41.185Z,1.27
2022-11-21T01:26:43.598Z,2.10
2022-11-21T01:27:46.336Z,1.20
2022-11-21T01:28:49.163Z,2.00
2022-11-21T01:29:52.547Z,1.88
2022-11-21T01:30:54.971Z,3.38
2022-11-21T01:31:57.705Z,2.38
2022-11-21T01:33:00.324Z,2.17
2022-11-21T01:34:03.782Z,2.28
2022-11-21T01:35:07.137Z,5.25
2022-11-21T01:36:21.629Z,2.47
2022-11-21T01:37:25.035Z,2.90
2022-11-21T01:38:27.599Z,1.48
2022-11-21T01:39:29.993Z,2.80
2022-11-21T01:40:38.698Z,1.98
2022-11-21T01:41:43.997Z,0.93
2022-11-21T01:43:01.328Z,1.35
2022-11-21T01:44:10.533Z,4.18
2022-11-21T01:45:50.392Z,1.35
2022-11-21T01:46:53.509Z,1.60
2022-11-21T01:47:56.140Z,4.22
2022-11-21T01:49:16.485Z,1.65
2022-11-21T01:50:19.048Z,1.10
2022-11-21T01:51:32.796Z,1.23
2022-11-21T01:52:35.492Z,2.65
2022-11-21T01:53:40.290Z,2.00
2022-11-21T01:54:56.734Z,0.82
2022-11-21T01:55:59.215Z,2.58
2022-11-21T01:57:14.706Z,1.60
2022-11-21T01:58:17.980Z,1.38
2022-11-21T01:59:35.064Z,2.03
2022-11-21T02:00:42.580Z,0.90
2022-11-21T02:01:46.631Z,2.03
2022-11-21T02:02:54.229Z,1.25
2022-11-21T02:03:58.004Z,1.98
2022-11-21T02:05:01.752Z,1.40
2022-11-21T02:06:07.495Z,3.40
2022-11-21T02:07:12.254Z,1.35
2022-11-21T02:08:20.509Z,1.02
2022-11-21T02:09:23.679Z,1.52
2022-11-21T02:10:27.463Z,1.20
2022-11-21T02:11:49.308Z,1.38
2022-11-21T02:12:53.635Z,2.45
2022-11-21T02:13:56.354Z,1.25
2022-11-21T02:14:59.324Z,1.33
2022-11-21T02:16:05.980Z,0.93
2022-11-21T02:17:10.242Z,2.05
2022-11-21T02:18:13.421Z,4.15
2022-11-21T02:19:25.922Z,2.55
2022-11-21T02:20:29.519Z,1.02
2022-11-21T02:21:50.990Z,3.95
2022-11-21T02:23:06.061Z,1.00
2022-11-21T02:24:31.526Z,1.27
2022-11-21T02:25:36.347Z,2.97
2022-11-21T02:26:39.312Z,1.58
2022-11-21T02:27:42.577Z,1.45
2022-11-21T02:28:45.214Z,0.60
2022-11-21T02:29:48.086Z,0.95
2022-11-21T02:30:50.755Z,0.88
2022-11-21T02:31:53.650Z,2.40
2022-11-21T02:32:56.519Z,0.77
2022-11-21T02:33:59.016Z,1.33
2022-11-21T02:35:02.057Z,1.08
2022-11-21T02:36:05.363Z,5.03
2022-11-21T02:37:10.083Z,1.13
2022-11-21T02:38:24.974Z,0.73
2022-11-21T02:39:32.722Z,2.50
2022-11-21T02:40:39.668Z,1.00
2022-11-21T02:41:51.145Z,1.17
2022-11-21T02:43:08.559Z,0.90
2022-11-21T02:44:23.167Z,1.40
2022-11-21T02:45:30.207Z,1.08
2022-11-21T02:46:35.078Z,0.70
2022-11-21T02:47:39.667Z,0.82
2022-11-21T02:48:42.067Z,0.52
2022-11-21T02:50:20.295Z,0.63
2022-11-21T02:51:22.826Z,0.63
2022-11-21T02:52:25.212Z,0.80
2022-11-21T02:53:27.757Z,1.08
2022-11-21T02:54:30.482Z,1.05
2022-11-21T02:55:32.869Z,1.10
2022-11-21T02:56:35.739Z,0.57
2022-11-21T02:57:39.436Z,1.98
2022-11-21T02:58:42.062Z,0.82
2022-11-21T02:59:44.439Z,1.50
2022-11-21T03:00:47.376Z,1.17
2022-11-21T03:01:49.889Z,1.35
2022-11-21T03:02:53.419Z,0.50
2022-11-21T03:03:56.168Z,0.88
2022-11-21T03:04:59.229Z,0.95
2022-11-21T03:06:01.577Z,2.13
2022-11-21T03:07:04.228Z,0.70
2022-11-21T03:08:07.318Z,0.50
2022-11-21T03:09:09.615Z,0.47
2022-11-21T03:10:12.425Z,0.85
2022-11-21T03:11:14.869Z,0.63
2022-11-21T03:12:17.259Z,0.50
2022-11-21T03:13:19.795Z,0.93
2022-11-21T03:14:22.100Z,1.92
2022-11-21T03:15:24.715Z,1.20
2022-11-21T03:16:27.016Z,0.52
2022-11-21T03:17:29.498Z,0.98
2022-11-21T03:18:32.051Z,2.20
2022-11-21T03:19:34.594Z,0.88
2022-11-21T03:20:37.179Z,1.38
2022-11-21T03:21:39.850Z,0.93
2022-11-21T03:22:42.531Z,1.15
2022-11-21T03:23:44.870Z,1.23
2022-11-21T03:24:47.359Z,1.60
2022-11-21T03:25:49.669Z,0.73
2022-11-21T03:26:52.503Z,0.82
2022-11-21T03:27:56.680Z,1.85
2022-11-21T03:28:59.633Z,1.45
2022-11-21T03:30:02.388Z,0.80
2022-11-21T03:31:04.929Z,2.10
2022-11-21T03:32:07.559Z,0.50
2022-11-21T03:33:09.882Z,0.70
2022-11-21T03:34:12.213Z,10.25
2022-11-21T03:35:15.380Z,0.80
2022-11-21T03:36:18.216Z,1.02
2022-11-21T03:37:20.544Z,0.73
2022-11-21T03:38:23.613Z,39.65
2022-11-21T03:39:26.101Z,27.15
2022-11-21T03:40:28.424Z,88.63
2022-11-21T03:41:30.937Z,91.43
2022-11-21T03:42:33.342Z,69.80
2022-11-21T03:43:35.698Z,59.22
2022-11-21T03:44:38.289Z,46.47
2022-11-21T03:45:40.606Z,43.10
2022-11-21T03:46:45.348Z,39.70
2022-11-21T03:47:47.814Z,24.67
2022-11-21T03:48:50.304Z,33.65
2022-11-21T03:49:52.835Z,30.38
2022-11-21T03:50:55.138Z,36.28
2022-11-21T03:51:57.436Z,23.90
2022-11-21T03:52:59.740Z,22.08
2022-11-21T03:54:02.833Z,23.10
2022-11-21T03:55:05.569Z,22.65
2022-11-21T03:56:07.935Z,19.45
2022-11-21T03:57:10.237Z,18.15
2022-11-21T03:58:12.521Z,16.02
2022-11-21T03:59:14.880Z,15.15
2022-11-21T04:00:17.525Z,18.38
2022-11-21T04:01:20.119Z,17.75
2022-11-21T04:02:22.429Z,18.88
2022-11-21T04:03:24.778Z,15.52
2022-11-21T04:04:27.424Z,17.38
2022-11-21T04:05:29.936Z,17.20
2022-11-21T04:06:32.251Z,14.63
2022-11-21T04:07:34.585Z,13.88
2022-11-21T04:08:37.021Z,13.77
2022-11-21T04:09:39.346Z,6.10
2022-11-21T04:10:48.212Z,34.92
2022-11-21T04:11:50.710Z,94.18
2022-11-21T04:12:52.995Z,70.75
2022-11-21T04:13:55.426Z,17.80
2022-11-21T04:14:57.691Z,112.22
2022-11-21T04:15:59.967Z,58.60
2022-11-21T04:17:02.290Z,49.53
2022-11-21T04:18:04.674Z,52.47
2022-11-21T04:19:06.959Z,49.83
2022-11-21T04:20:10.093Z,42.05
2022-11-21T04:21:12.718Z,36.05
2022-11-21T04:22:15.057Z,35.28
2022-11-21T04:23:17.572Z,31.63
2022-11-21T04:24:19.915Z,33.00
2022-11-21T04:25:22.306Z,33.85
2022-11-21T04:26:24.601Z,31.25
2022-11-21T04:27:26.875Z,29.33
2022-11-21T04:28:29.194Z,29.38
2022-11-21T04:29:31.621Z,37.78
2022-11-21T04:30:34.580Z,28.63
2022-11-21T04:31:36.906Z,26.85
2022-11-21T04:32:39.181Z,25.67
2022-11-21T04:33:41.426Z,23.50
2022-11-21T04:34:43.712Z,26.60
2022-11-21T04:35:47.106Z,26.02
2022-11-21T04:36:49.473Z,22.73
2022-11-21T04:37:52.135Z,26.08
2022-11-21T04:38:54.474Z,25.00
2022-11-21T04:39:56.775Z,25.02
2022-11-21T04:40:59.071Z,21.33
2022-11-21T04:42:01.409Z,27.65
2022-11-21T04:43:04.537Z,20.40
2022-11-21T04:44:06.903Z,20.02
2022-11-21T04:45:09.624Z,21.13
2022-11-21T04:46:11.974Z,64.65
2022-11-21T04:47:14.291Z,43.63
2022-11-21T04:48:16.660Z,29.75
2022-11-21T04:49:18.953Z,30.83
2022-11-21T04:50:21.285Z,28.38
2022-11-21T04:51:23.575Z,41.65
2022-11-21T04:52:25.894Z,26.25
2022-11-21T04:53:28.173Z,32.45
2022-11-21T04:54:31.024Z,25.65
2022-11-21T04:55:33.815Z,28.60
2022-11-21T04:56:37.165Z,29.10
2022-11-21T04:57:39.506Z,26.63
2022-11-21T04:58:42.837Z,28.35
2022-11-21T04:59:45.253Z,28.02
2022-11-21T05:00:47.565Z,24.15
2022-11-21T05:01:50.000Z,21.52
2022-11-21T05:02:52.624Z,23.55
2022-11-21T05:03:54.877Z,23.25
2022-11-21T05:04:57.187Z,22.73
2022-11-21T05:05:59.448Z,24.00
2022-11-21T05:07:01.809Z,25.65
2022-11-21T05:08:04.400Z,22.00
2022-11-21T05:09:06.767Z,22.23
2022-11-21T05:10:09.508Z,18.55
2022-11-21T05:11:30.610Z,21.60
2022-11-21T05:12:51.742Z,18.58
2022-11-21T05:13:54.721Z,20.95
2022-11-21T05:14:57.293Z,15.98
2022-11-21T05:15:59.692Z,12.05
2022-11-21T05:17:01.997Z,12.63
2022-11-21T05:18:04.446Z,33.83
2022-11-21T05:19:07.546Z,20.38
2022-11-21T05:20:10.632Z,24.88
2022-11-21T05:21:12.917Z,23.80
2022-11-21T05:22:15.205Z,18.15
2022-11-21T05:23:17.499Z,19.75
2022-11-21T05:24:19.743Z,20.73
2022-11-21T05:25:22.110Z,20.35
2022-11-21T05:26:24.492Z,22.70
2022-11-21T05:27:26.801Z,20.27
2022-11-21T05:28:29.166Z,17.98
2022-11-21T05:29:31.629Z,16.27
2022-11-21T05:30:33.942Z,16.48
2022-11-21T05:31:36.259Z,17.80
2022-11-21T05:32:38.589Z,23.92
2022-11-21T05:33:40.901Z,18.63
2022-11-21T05:34:43.184Z,23.10
2022-11-21T05:35:45.609Z,16.35
2022-11-21T05:36:47.898Z,15.27
2022-11-21T05:37:56.097Z,16.40
2022-11-21T05:38:58.559Z,16.92
2022-11-21T05:40:00.974Z,23.27
2022-11-21T05:41:03.321Z,20.98
2022-11-21T05:42:05.638Z,18.77
2022-11-21T05:43:28.406Z,16.95
2022-11-21T05:44:31.008Z,17.55
2022-11-21T05:45:33.562Z,19.35
2022-11-21T05:46:35.864Z,17.23
2022-11-21T05:47:38.152Z,18.55
2022-11-21T05:48:40.513Z,16.08
2022-11-21T05:49:42.774Z,17.77
2022-11-21T05:50:49.338Z,16.85
2022-11-21T05:51:51.681Z,19.30
2022-11-21T05:52:54.005Z,16.17
2022-11-21T05:53:56.354Z,15.07
2022-11-21T05:54:58.795Z,16.38
2022-11-21T05:56:07.138Z,13.80
2022-11-21T05:57:09.478Z,77.97
2022-11-21T05:58:12.558Z,96.38
2022-11-21T05:59:14.863Z,65.68
2022-11-21T06:00:17.792Z,46.08
2022-11-21T06:01:40.177Z,34.35
2022-11-21T06:03:01.309Z,34.42
2022-11-21T06:04:03.727Z,30.15
2022-11-21T06:05:06.467Z,38.65
2022-11-21T06:06:13.738Z,33.03
2022-11-21T06:07:16.103Z,26.85
2022-11-21T06:08:18.785Z,33.47
2022-11-21T06:09:21.099Z,36.15
2022-11-21T06:10:23.426Z,34.42
2022-11-21T06:11:25.813Z,30.67
2022-11-21T06:12:28.129Z,29.27
2022-11-21T06:13:30.961Z,32.17
2022-11-21T06:14:33.306Z,27.83
2022-11-21T06:15:37.413Z,27.30
2022-11-21T06:16:39.691Z,25.95
2022-11-21T06:17:42.110Z,28.08
2022-11-21T06:18:47.142Z,27.63
2022-11-21T06:19:49.917Z,27.80
2022-11-21T06:20:52.533Z,31.75
2022-11-21T06:21:54.847Z,27.83
2022-11-21T06:22:57.203Z,26.17
2022-11-21T06:23:59.491Z,27.08
2022-11-21T06:25:01.982Z,27.30
2022-11-21T06:26:06.972Z,28.45
2022-11-21T06:27:09.450Z,27.20
2022-11-21T06:28:12.067Z,28.05
2022-11-21T06:29:14.482Z,23.55
2022-11-21T06:30:22.007Z,25.13
2022-11-21T06:31:26.527Z,28.42
2022-11-21T06:32:28.855Z,25.00
2022-11-21T06:33:31.227Z,25.35
2022-11-21T06:34:33.584Z,23.60
2022-11-21T06:35:38.289Z,24.30
2022-11-21T06:36:40.560Z,24.90
2022-11-21T06:37:43.064Z,29.23
2022-11-21T06:38:46.109Z,21.80
2022-11-21T06:39:48.738Z,23.52
2022-11-21T06:40:51.017Z,22.10
2022-11-21T06:41:53.401Z,21.02
2022-11-21T06:42:56.550Z,22.20
2022-11-21T06:44:01.824Z,27.17
2022-11-21T06:45:04.602Z,22.05
2022-11-21T06:46:07.333Z,22.27
2022-11-21T06:47:09.778Z,25.48
2022-11-21T06:48:12.078Z,22.38
2022-11-21T06:49:14.626Z,22.08
2022-11-21T06:50:17.171Z,20.85
2022-11-21T06:51:25.845Z,22.17
2022-11-21T06:52:28.140Z,21.98
2022-11-21T06:53:30.458Z,44.42
2022-11-21T06:54:33.041Z,27.35
2022-11-21T06:55:35.791Z,21.95
2022-11-21T06:56:38.061Z,20.25
2022-11-21T06:57:40.486Z,21.50
2022-11-21T06:58:42.764Z,21.25
2022-11-21T06:59:45.002Z,21.23
2022-11-21T07:00:48.648Z,22.88
2022-11-21T07:01:51.031Z,24.35
2022-11-21T07:02:55.641Z,25.10
2022-11-21T07:04:01.041Z,22.75
2022-11-21T07:05:03.339Z,22.95
2022-11-21T07:06:06.673Z,26.30
2022-11-21T07:07:09.050Z,24.35
2022-11-21T07:08:13.409Z,23.30
2022-11-21T07:09:32.728Z,23.50
2022-11-21T07:10:35.838Z,21.67
2022-11-21T07:11:38.184Z,22.90
2022-11-21T07:12:59.348Z,20.60
2022-11-21T07:14:06.238Z,21.50
2022-11-21T07:15:11.546Z,28.75
2022-11-21T07:16:14.281Z,19.02
2022-11-21T07:17:16.618Z,19.95
2022-11-21T07:18:20.127Z,19.48
2022-11-21T07:19:23.209Z,20.63
2022-11-21T07:20:25.554Z,21.42
2022-11-21T07:21:27.915Z,19.85
2022-11-21T07:22:30.454Z,22.77
2022-11-21T07:23:34.286Z,21.17
2022-11-21T07:24:36.820Z,20.17
2022-11-21T07:25:39.851Z,25.73
2022-11-21T07:26:42.190Z,19.92
2022-11-21T07:27:44.731Z,21.58
2022-11-21T07:28:47.059Z,20.02
2022-11-21T07:29:49.389Z,19.55
2022-11-21T07:30:51.710Z,19.75
2022-11-21T07:31:54.806Z,22.17
2022-11-21T07:33:05.422Z,19.02
2022-11-21T07:34:07.745Z,20.42
2022-11-21T07:35:10.376Z,20.15
2022-11-21T07:36:13.158Z,22.85
2022-11-21T07:37:15.422Z,23.65
2022-11-21T07:38:18.038Z,19.67
2022-11-21T07:39:20.330Z,23.38
2022-11-21T07:40:22.671Z,20.33
2022-11-21T07:41:24.978Z,20.90
2022-11-21T07:42:27.320Z,19.70
2022-11-21T07:43:29.691Z,19.27
2022-11-21T07:44:32.079Z,22.95
2022-11-21T07:45:34.596Z,17.83
2022-11-21T07:46:37.043Z,20.55
2022-11-21T07:47:39.574Z,19.38
2022-11-21T07:48:41.875Z,19.15
2022-11-21T07:49:44.191Z,19.92
2022-11-21T07:50:46.586Z,20.42
2022-11-21T07:51:48.921Z,19.60
2022-11-21T07:52:51.300Z,18.90
2022-11-21T07:53:53.609Z,19.05
2022-11-21T07:54:56.973Z,18.77
2022-11-21T07:56:00.024Z,18.70
2022-11-21T07:57:02.342Z,16.98
2022-11-21T07:58:09.941Z,18.63
2022-11-21T07:59:12.229Z,17.02
2022-11-21T08:00:15.366Z,19.98
2022-11-21T08:01:17.721Z,15.73
2022-11-21T08:02:27.660Z,17.25
2022-11-21T08:03:29.985Z,16.63
2022-11-21T08:04:32.246Z,19.23
2022-11-21T08:05:42.673Z,19.92
2022-11-21T08:06:44.994Z,17.58
2022-11-21T08:07:47.806Z,17.05
2022-11-21T08:08:54.010Z,18.80
2022-11-21T08:09:56.326Z,16.95
2022-11-21T08:10:58.652Z,18.55
2022-11-21T08:12:00.984Z,16.75
2022-11-21T08:13:03.252Z,17.15
2022-11-21T08:14:05.608Z,19.63
2022-11-21T08:15:08.652Z,17.20
2022-11-21T08:16:10.963Z,16.63
2022-11-21T08:17:14.100Z,17.33
2022-11-21T08:18:20.520Z,18.63
2022-11-21T08:19:22.830Z,18.33
2022-11-21T08:20:25.279Z,19.83
2022-11-21T08:21:27.646Z,30.00
2022-11-21T08:22:29.938Z,26.02
2022-11-21T08:23:32.624Z,29.20
2022-11-21T08:24:34.917Z,26.90
2022-11-21T08:25:41.357Z,25.20
2022-11-21T08:26:44.688Z,42.13
2022-11-21T08:27:46.998Z,31.33
2022-11-21T08:28:49.323Z,30.02
2022-11-21T08:29:51.665Z,28.73
2022-11-21T08:30:54.314Z,24.67
2022-11-21T08:31:56.715Z,24.90
2022-11-21T08:32:59.257Z,24.40
2022-11-21T08:34:01.497Z,27.75
2022-11-21T08:35:03.979Z,24.77
2022-11-21T08:36:07.350Z,21.42
2022-11-21T08:37:09.650Z,25.00
2022-11-21T08:38:12.437Z,27.65
2022-11-21T08:39:14.716Z,22.10
2022-11-21T08:40:17.098Z,23.77
2022-11-21T08:41:38.273Z,30.25
2022-11-21T08:42:40.610Z,24.13
2022-11-21T08:43:43.266Z,24.30
2022-11-21T08:44:45.512Z,24.13
2022-11-21T08:45:47.766Z,21.27
2022-11-21T08:46:50.093Z,23.52
2022-11-21T08:47:53.425Z,23.77
2022-11-21T08:48:55.931Z,24.13
2022-11-21T08:49:58.221Z,21.90
2022-11-21T08:51:00.719Z,24.27
2022-11-21T08:52:03.192Z,28.23
2022-11-21T08:53:05.506Z,22.75
2022-11-21T08:54:09.397Z,22.88
2022-11-21T08:55:11.656Z,20.48
2022-11-21T08:56:13.950Z,21.08
2022-11-21T08:57:16.286Z,19.13
2022-11-21T08:58:18.644Z,33.55
2022-11-21T08:59:20.955Z,51.03
2022-11-21T09:00:23.696Z,50.25
2022-11-21T09:01:26.098Z,71.32
2022-11-21T09:02:28.373Z,25.95
2022-11-21T09:03:31.699Z,38.97
2022-11-21T09:04:34.179Z,79.90
2022-11-21T09:05:36.532Z,89.70
2022-11-21T09:06:39.136Z,27.33
2022-11-21T09:07:41.520Z,22.92
2022-11-21T09:08:43.977Z,25.98
2022-11-21T09:09:46.232Z,32.17
2022-11-21T09:10:48.558Z,32.08
2022-11-21T09:11:50.856Z,31.90
2022-11-21T09:12:53.360Z,32.38
2022-11-21T09:14:14.136Z,34.80
2022-11-21T09:15:35.233Z,37.20
2022-11-21T09:17:01.729Z,33.72
2022-11-21T09:18:05.021Z,28.77
2022-11-21T09:19:07.465Z,29.08
2022-11-21T09:20:10.243Z,33.60
2022-11-21T09:21:16.351Z,35.72
2022-11-21T09:22:18.721Z,27.52
2022-11-21T09:23:21.368Z,37.20
2022-11-21T09:24:24.086Z,29.52
2022-11-21T09:25:26.451Z,32.72
2022-11-21T09:26:28.822Z,25.13
2022-11-21T09:27:31.463Z,27.80
2022-11-21T09:28:35.814Z,27.60
2022-11-21T09:29:38.278Z,28.52
2022-11-21T09:30:42.193Z,26.50
2022-11-21T09:31:46.178Z,33.45
2022-11-21T09:32:48.503Z,29.13
2022-11-21T09:33:54.861Z,29.98
2022-11-21T09:34:57.475Z,24.20
2022-11-21T09:36:00.576Z,29.77
2022-11-21T09:37:03.303Z,28.67
2022-11-21T09:38:06.386Z,30.45
2022-11-21T09:39:09.065Z,26.40
2022-11-21T09:40:18.652Z,25.27
2022-11-21T09:41:52.066Z,27.95
2022-11-21T09:43:15.390Z,27.75
2022-11-21T09:44:44.377Z,27.95
2022-11-21T09:45:52.275Z,27.88
2022-11-21T09:47:04.070Z,30.02
2022-11-21T09:48:16.672Z,25.92
2022-11-21T09:49:19.276Z,23.92
2022-11-21T09:50:29.228Z,26.33
2022-11-21T09:51:31.963Z,23.88
2022-11-21T09:52:47.104Z,23.33
2022-11-21T09:54:04.280Z,27.92
2022-11-21T09:55:18.085Z,28.95
2022-11-21T09:56:23.616Z,25.40
2022-11-21T09:57:29.573Z,23.13
2022-11-21T09:58:49.508Z,25.45
2022-11-21T09:59:52.743Z,24.58
2022-11-21T10:00:55.215Z,23.50
2022-11-21T10:01:57.958Z,24.05
2022-11-21T10:03:01.334Z,25.45
2022-11-21T10:04:04.105Z,24.25
2022-11-21T10:05:12.822Z,28.35
2022-11-21T10:06:26.510Z,19.95
2022-11-21T10:07:35.088Z,29.58
2022-11-21T10:08:48.061Z,37.33
2022-11-21T10:09:55.998Z,22.42
2022-11-21T10:11:22.029Z,29.77
2022-11-21T10:12:40.258Z,23.20
2022-11-21T10:14:02.958Z,24.33
2022-11-21T10:15:15.723Z,25.23
2022-11-21T10:16:43.948Z,38.60
2022-11-21T10:18:20.438Z,24.30
2022-11-21T10:19:44.113Z,21.52
2022-11-21T10:21:21.628Z,24.33
2022-11-21T10:22:43.594Z,24.15
2022-11-21T10:24:10.765Z,25.13
2022-11-21T10:25:15.337Z,21.45
2022-11-21T10:26:33.630Z,24.23
2022-11-21T10:28:11.779Z,24.15
2022-11-21T10:29:22.778Z,24.10
2022-11-21T10:30:25.935Z,26.25
2022-11-21T10:31:33.055Z,23.73
2022-11-21T10:32:41.623Z,20.52
2022-11-21T10:33:45.013Z,22.88
2022-11-21T10:34:49.375Z,22.05
2022-11-21T10:35:57.247Z,19.38
2022-11-21T10:37:09.114Z,35.75
2022-11-21T10:38:23.936Z,25.27
2022-11-21T10:39:41.228Z,22.38
2022-11-21T10:40:51.476Z,20.50
2022-11-21T10:42:24.279Z,21.50
2022-11-21T10:43:57.849Z,22.83
2022-11-21T10:45:16.475Z,20.75
2022-11-21T10:46:18.858Z,20.70
2022-11-21T10:47:31.119Z,20.55
2022-11-21T10:48:33.808Z,30.02
2022-11-21T10:49:36.519Z,21.02
2022-11-21T10:50:54.790Z,24.42
2022-11-21T10:52:17.281Z,23.92
2022-11-21T10:53:43.761Z,18.00
2022-11-21T10:55:04.075Z,26.35
2022-11-21T10:56:08.648Z,21.63
2022-11-21T10:57:16.153Z,20.40
2022-11-21T10:58:19.436Z,18.85
2022-11-21T10:59:30.769Z,16.95
2022-11-21T11:00:34.427Z,16.80
2022-11-21T11:01:37.213Z,22.13
2022-11-21T11:02:41.812Z,20.83
2022-11-21T11:04:01.060Z,26.35
2022-11-21T11:05:30.167Z,19.23
2022-11-21T11:06:32.734Z,15.63
2022-11-21T11:07:35.098Z,17.05
2022-11-21T11:08:52.364Z,26.42
2022-11-21T11:10:16.473Z,28.55
2022-11-21T11:11:22.588Z,17.73
2022-11-21T11:12:49.982Z,20.42
2022-11-21T11:13:57.153Z,26.25
2022-11-21T11:14:59.531Z,21.98
2022-11-21T11:16:04.994Z,21.13
2022-11-21T11:17:14.737Z,20.30
2022-11-21T11:18:22.324Z,22.33
2022-11-21T11:19:38.515Z,19.85
2022-11-21T11:20:45.045Z,18.10
2022-11-21T11:21:49.709Z,18.75
2022-11-21T11:22:52.041Z,21.25
2022-11-21T11:24:05.556Z,22.45
2022-11-21T11:25:09.765Z,16.83
2022-11-21T11:26:26.076Z,20.60
2022-11-21T11:27:29.640Z,17.88
2022-11-21T11:28:36.904Z,16.63
2022-11-21T11:29:51.184Z,20.13
2022-11-21T11:30:55.745Z,17.98
2022-11-21T11:32:03.806Z,17.00
2022-11-21T11:33:31.508Z,14.55
2022-11-21T11:34:38.763Z,15.88
2022-11-21T11:35:42.162Z,22.13
2022-11-21T11:36:54.608Z,19.70
2022-11-21T11:38:03.221Z,15.43
2022-11-21T11:39:22.685Z,27.25
2022-11-21T11:40:28.345Z,80.47
2022-11-21T11:42:16.882Z,348.52
2022-11-21T11:44:05.502Z,180.35
2022-11-21T11:45:32.543Z,70.18
2022-11-21T11:47:08.971Z,30.27
2022-11-21T11:48:11.503Z,48.63
2022-11-21T11:49:22.494Z,23.30
2022-11-21T11:50:49.457Z,18.83
2022-11-21T11:51:56.768Z,17.25
2022-11-21T11:53:12.003Z,17.77
2022-11-21T11:54:25.190Z,14.27
2022-11-21T11:55:47.336Z,9.02
2022-11-21T11:56:50.345Z,9.13
2022-11-21T11:57:57.009Z,7.88
2022-11-21T11:59:20.481Z,10.55
2022-11-21T12:00:30.634Z,7.07
2022-11-21T12:01:43.375Z,6.68
2022-11-21T12:03:02.114Z,8.43
2022-11-21T12:04:13.216Z,6.43
2022-11-21T12:05:27.673Z,4.07
2022-11-21T12:08:54.492Z,3.45
2022-11-21T12:10:18.298Z,3.20
2022-11-21T12:12:07.676Z,5.45
2022-11-21T12:13:16.338Z,5.55
2022-11-21T12:15:01.253Z,4.18
2022-11-21T12:16:13.447Z,6.10
2022-11-21T12:17:19.895Z,4.75
2022-11-21T12:18:47.273Z,7.38
2022-11-21T12:19:52.626Z,6.20
2022-11-21T12:21:06.040Z,2.17
2022-11-21T12:22:11.811Z,5.13
2022-11-21T12:23:15.024Z,3.60
2022-11-21T12:24:21.044Z,4.55
2022-11-21T12:25:31.332Z,4.95
2022-11-21T12:26:36.485Z,3.38
2022-11-21T12:27:43.051Z,5.75
2022-11-21T12:29:06.307Z,5.20
2022-11-21T12:30:47.085Z,6.60
2022-11-21T12:32:04.345Z,103.00
2022-11-21T12:33:15.843Z,41.33
2022-11-21T12:34:37.263Z,46.03
2022-11-21T12:35:39.549Z,40.22
2022-11-21T12:37:29.488Z,39.63
2022-11-21T12:38:49.913Z,27.48
2022-11-21T12:40:05.541Z,20.75
2022-11-21T12:41:49.031Z,20.33
2022-11-21T12:43:24.344Z,15.00
2022-11-21T12:44:54.004Z,16.83
2022-11-21T12:46:14.935Z,14.95
2022-11-21T12:47:23.309Z,16.80
2022-11-21T12:49:16.164Z,18.80
2022-11-21T12:50:46.649Z,13.52
2022-11-21T12:52:13.793Z,16.20
2022-11-21T12:53:46.924Z,16.77
2022-11-21T12:55:19.587Z,16.63
2022-11-21T12:57:01.717Z,19.05
2022-11-21T12:58:17.543Z,17.77
2022-11-21T12:59:22.318Z,12.85
2022-11-21T13:00:46.185Z,14.23
2022-11-21T13:02:01.263Z,20.52
2022-11-21T13:03:24.397Z,15.55
2022-11-21T13:04:30.677Z,15.70
2022-11-21T13:05:37.670Z,13.02
2022-11-21T13:06:43.835Z,15.90
2022-11-21T13:07:47.175Z,16.00
2022-11-21T13:08:51.710Z,18.77
2022-11-21T13:09:56.853Z,14.15
2022-11-21T13:11:46.209Z,21.55
2022-11-21T13:12:58.415Z,14.23
2022-11-21T13:14:17.004Z,12.95
2022-11-21T13:15:36.961Z,13.55
2022-11-21T13:16:48.209Z,13.55
2022-11-21T13:18:04.592Z,13.32
2022-11-21T13:19:22.033Z,15.30
2022-11-21T13:20:53.636Z,13.23
2022-11-21T13:21:55.947Z,11.60
2022-11-21T13:23:03.502Z,12.77
2022-11-21T13:24:07.195Z,12.77
2022-11-21T13:25:12.442Z,14.10
2022-11-21T13:26:28.686Z,14.02
2022-11-21T13:27:44.756Z,15.15
2022-11-21T13:28:47.229Z,13.43
2022-11-21T13:30:07.630Z,10.77
2022-11-21T13:31:30.903Z,14.77
2022-11-21T13:32:52.947Z,13.25
2022-11-21T13:33:55.582Z,10.98
2022-11-21T13:34:57.858Z,14.48
2022-11-21T13:36:10.792Z,13.90
2022-11-21T13:37:51.522Z,13.75
2022-11-21T13:38:53.867Z,12.45
2022-11-21T13:40:27.958Z,13.27
2022-11-21T13:41:54.876Z,12.65
2022-11-21T13:43:32.016Z,15.07
2022-11-21T13:44:32.018Z,15.00
2022-11-21T13:45:47.146Z,12.73
2022-11-21T13:47:14.823Z,14.60
2022-11-21T13:49:00.451Z,10.60
2022-11-21T13:50:28.284Z,12.13
2022-11-21T13:51:52.522Z,12.70
2022-11-21T13:53:06.177Z,12.93
2022-11-21T13:54:26.520Z,14.13
2022-11-21T13:55:57.899Z,11.65
2022-11-21T13:57:37.580Z,12.23
2022-11-21T13:59:08.749Z,12.77
2022-11-21T14:00:35.139Z,12.32
2022-11-21T14:01:59.182Z,18.27
2022-11-21T14:03:25.897Z,11.63
2022-11-21T14:04:37.023Z,14.32
2022-11-21T14:06:14.743Z,12.85
2022-11-21T14:07:24.439Z,12.70
2022-11-21T14:08:29.145Z,18.17
2022-11-21T14:09:48.188Z,12.82
2022-11-21T14:10:52.706Z,15.02
2022-11-21T14:12:04.576Z,13.63
2022-11-21T14:13:17.786Z,11.52
2022-11-21T14:14:30.323Z,11.32
2022-11-21T14:15:41.194Z,12.98
2022-11-21T14:16:50.832Z,13.20
2022-11-21T14:18:01.119Z,15.27
2022-11-21T14:19:05.095Z,11.48
2022-11-21T14:20:23.350Z,13.65
2022-11-21T14:21:28.376Z,11.95
2022-11-21T14:23:06.303Z,12.75
2022-11-21T14:24:34.810Z,11.02
2022-11-21T14:25:39.809Z,13.60
2022-11-21T14:26:50.332Z,13.02
2022-11-21T14:27:55.988Z,14.32
2022-11-21T14:29:17.756Z,16.42
2022-11-21T14:30:35.577Z,13.43
2022-11-21T14:31:47.932Z,12.80
2022-11-21T14:32:54.414Z,11.70
2022-11-21T14:33:58.284Z,14.43
2022-11-21T14:35:22.706Z,14.00
2022-11-21T14:36:28.241Z,14.40
2022-11-21T14:37:31.610Z,15.35
2022-11-21T14:38:41.173Z,12.48
2022-11-21T14:39:45.110Z,17.70